createdAt,value
2019-06-01T05:58:15.215Z,70.03
2019-06-01T05:59:15.984Z,70.12
2019-06-01T06:00:15.160Z,70.26
2019-06-01T06:01:16.363Z,70.26
2019-06-01T06:02:15.256Z,70.46
2019-06-01T06:03:19.083Z,70.26
2019-06-01T06:04:16.085Z,70.23
2019-06-01T06:05:15.086Z,70.12
2019-06-01T06:06:15.817Z,69.42
2019-06-01T06:07:15.063Z,69.12
2019-06-01T06:08:15.981Z,69.38
2019-06-01T06:09:15.030Z,69.18
2019-06-01T06:10:16.009Z,69.32
2019-06-01T06:11:15.009Z,69.09
2019-06-01T06:12:15.508Z,68.48
2019-06-01T06:13:15.381Z,68.78
2019-06-01T06:14:15.506Z,68.75
2019-06-01T06:15:15.638Z,68.15
2019-06-01T06:16:15.727Z,67.91
2019-06-01T06:17:17.415Z,67.71
2019-06-01T06:18:15.756Z,66.91
2019-06-01T06:19:17.897Z,66.41
2019-06-01T06:20:16.017Z,67.01
2019-06-01T06:21:16.005Z,66.81
2019-06-01T06:22:16.111Z,66.64
2019-06-01T06:23:14.882Z,66.24
2019-06-01T06:24:14.863Z,66.24
2019-06-01T06:25:14.851Z,66.14
2019-06-01T06:26:15.593Z,66.55
2019-06-01T06:27:14.836Z,65.68
2019-06-01T06:28:14.821Z,66.08
2019-06-01T06:29:14.814Z,65.05
2019-06-01T06:30:14.898Z,64.75
2019-06-01T06:31:15.084Z,64.31
2019-06-01T06:32:15.085Z,64.01
2019-06-01T06:33:15.217Z,64.51
2019-06-01T06:34:15.286Z,63.54
2019-06-01T06:35:15.331Z,63.42
2019-06-01T06:36:15.558Z,63.42
2019-06-01T06:37:15.604Z,63.21
2019-06-01T06:38:15.681Z,63.21
2019-06-01T06:39:15.766Z,63.21
2019-06-01T06:40:15.920Z,62.92
2019-06-01T06:41:14.673Z,63.01
2019-06-01T06:42:14.662Z,63.11
2019-06-01T06:43:21.316Z,63.01
2019-06-01T06:44:16.406Z,63.42
2019-06-01T06:45:14.687Z,63.11
2019-06-01T06:46:14.628Z,63.84
2019-06-01T06:47:14.744Z,64.48
2019-06-01T06:48:14.956Z,64.75
2019-06-01T06:49:15.015Z,63.95
2019-06-01T06:50:15.805Z,64.65
2019-06-01T06:51:15.146Z,64.34
2019-06-01T06:52:15.218Z,64.25
2019-06-01T06:53:25.248Z,63.61
2019-06-01T06:54:16.133Z,63.42
2019-06-01T06:55:15.653Z,63.51
2019-06-01T06:56:15.629Z,63.84
2019-06-01T06:57:14.493Z,64.45
2019-06-01T06:58:14.493Z,64.48
2019-06-01T06:59:14.476Z,65.28
2019-06-01T07:00:14.457Z,65.51
2019-06-01T07:01:14.447Z,65.31
2019-06-01T07:02:14.437Z,65.81
2019-06-01T07:03:14.435Z,66.21
2019-06-01T07:04:14.413Z,66.64
2019-06-01T07:05:14.408Z,67.02
2019-06-01T07:06:14.406Z,66.41
2019-06-01T07:07:14.380Z,65.61
2019-06-01T07:08:14.378Z,67.11
2019-06-01T07:09:14.386Z,66.35
2019-06-01T07:10:14.361Z,66.41
2019-06-01T07:11:14.337Z,66.41
2019-06-01T07:12:14.322Z,65.84
2019-06-01T07:13:14.321Z,66.08
2019-06-01T07:14:14.301Z,66.44
2019-06-01T07:15:14.308Z,66.28
2019-06-01T07:16:14.288Z,66.28
2019-06-01T07:17:15.831Z,66.58
2019-06-01T07:18:14.279Z,66.51
2019-06-01T07:19:14.261Z,66.91
2019-06-01T07:20:14.230Z,67.82
2019-06-01T07:21:14.237Z,67.11
2019-06-01T07:22:16.974Z,67.78
2019-06-01T07:23:14.205Z,66.67
2019-06-01T07:24:14.186Z,67.88
2019-06-01T07:25:14.178Z,67.78
2019-06-01T07:26:14.179Z,66.47
2019-06-01T07:27:14.177Z,67.75
2019-06-01T07:28:14.152Z,66.71
2019-06-01T07:29:14.134Z,65.51
2019-06-01T07:30:14.137Z,65.71
2019-06-01T07:31:14.110Z,65.51
2019-06-01T07:32:14.094Z,66.05
2019-06-01T07:33:14.137Z,65.64
2019-06-01T07:34:29.559Z,66.05
2019-06-01T07:35:15.064Z,67.05
2019-06-01T07:36:14.050Z,67.05
2019-06-01T07:37:14.059Z,66.31
2019-06-01T07:38:14.044Z,65.61
2019-06-01T07:39:14.016Z,66.21
2019-06-01T07:40:14.426Z,65.61
2019-06-01T07:41:13.997Z,65.61
2019-06-01T07:42:14.006Z,65.41
2019-06-01T07:43:13.994Z,66.01
2019-06-01T07:44:13.966Z,65.51
2019-06-01T07:45:14.039Z,65.01
2019-06-01T07:46:13.942Z,65.91
2019-06-01T07:47:13.939Z,65.81
2019-06-01T07:48:13.937Z,65.11
2019-06-01T07:49:13.907Z,65.31
2019-06-01T07:50:13.894Z,65.61
2019-06-01T07:51:13.883Z,65.91
2019-06-01T07:52:13.982Z,65.31
2019-06-01T07:53:13.861Z,65.61
2019-06-01T07:54:13.865Z,65.38
2019-06-01T07:55:13.840Z,65.45
2019-06-01T07:56:13.827Z,64.15
2019-06-01T07:57:13.816Z,63.64
2019-06-01T07:58:13.809Z,64.45
2019-06-01T07:59:13.821Z,63.84
2019-06-01T08:00:13.783Z,63.51
2019-06-01T08:01:13.775Z,62.31
2019-06-01T08:02:13.772Z,62.11
2019-06-01T08:03:13.749Z,62.41
2019-06-01T08:04:13.749Z,62.61
2019-06-01T08:05:13.729Z,62.21
2019-06-01T08:06:13.716Z,62.54
2019-06-01T08:07:13.712Z,62.71
2019-06-01T08:08:13.695Z,62.61
2019-06-01T08:09:13.691Z,62.71
2019-06-01T08:10:13.701Z,62.81
2019-06-01T08:11:13.660Z,63.11
2019-06-01T08:12:13.652Z,62.08
2019-06-01T08:13:13.644Z,61.98
2019-06-01T08:14:13.655Z,62.18
2019-06-01T08:15:13.763Z,61.98
2019-06-01T08:16:13.623Z,61.25
2019-06-01T08:17:13.597Z,61.22
2019-06-01T08:18:13.585Z,61.69
2019-06-01T08:19:13.599Z,61.59
2019-06-01T08:20:13.561Z,60.66
2019-06-01T08:21:13.550Z,59.64
2019-06-01T08:22:13.540Z,59.41
2019-06-01T08:23:13.532Z,59.61
2019-06-01T08:24:13.537Z,57.88
2019-06-01T08:25:13.509Z,57.95
2019-06-01T08:26:13.496Z,57.76
2019-06-01T08:27:13.483Z,56.96
2019-06-01T08:28:13.473Z,57.53
2019-06-01T08:29:13.473Z,57.63
2019-06-01T08:30:13.453Z,56.83
2019-06-01T08:31:13.441Z,56.93
2019-06-01T08:32:13.429Z,57.03
2019-06-01T08:33:13.424Z,57.63
2019-06-01T08:34:13.419Z,56.60
2019-06-01T08:35:13.400Z,56.90
2019-06-01T08:36:13.392Z,56.83
2019-06-01T08:37:13.376Z,56.81
2019-06-01T08:38:13.363Z,56.53
2019-06-01T08:39:13.362Z,56.93
2019-06-01T08:40:13.340Z,56.93
2019-06-01T08:41:13.331Z,55.41
2019-06-01T08:42:13.320Z,55.38
2019-06-01T08:43:13.309Z,55.38
2019-06-01T08:44:13.308Z,54.49
2019-06-01T08:45:13.287Z,55.05
2019-06-01T08:46:13.276Z,53.74
2019-06-01T08:47:13.267Z,53.02
2019-06-01T08:48:13.259Z,53.09
2019-06-01T08:49:13.252Z,52.49
2019-06-01T08:50:13.233Z,53.33
2019-06-01T08:51:13.222Z,52.31
2019-06-01T08:52:13.209Z,49.51
2019-06-01T08:53:13.200Z,49.88
2019-06-01T08:54:13.315Z,49.69
2019-06-01T08:55:13.176Z,49.64
2019-06-01T08:56:13.173Z,49.42
2019-06-01T08:57:13.159Z,48.28
2019-06-01T08:58:13.150Z,47.66
2019-06-01T08:59:13.133Z,45.39
2019-06-01T09:00:13.135Z,45.79
2019-06-01T09:01:13.111Z,45.98
2019-06-01T09:02:13.100Z,44.78
2019-06-01T09:03:13.094Z,45.76
2019-06-01T09:04:13.079Z,45.96
2019-06-01T09:05:23.786Z,45.54
2019-06-01T09:06:14.075Z,45.23
2019-06-01T09:07:13.045Z,43.55
2019-06-01T09:08:13.037Z,43.74
2019-06-01T09:09:13.024Z,43.05
2019-06-01T09:10:13.025Z,43.96
2019-06-01T09:11:13.013Z,44.83
2019-06-01T09:12:12.994Z,44.93
2019-06-01T09:13:12.984Z,44.02
2019-06-01T09:14:12.973Z,43.90
2019-06-01T09:15:13.155Z,43.21
2019-06-01T09:16:12.950Z,43.21
2019-06-01T09:17:12.940Z,43.59
2019-06-01T09:18:12.930Z,43.37
2019-06-01T09:19:12.923Z,43.05
2019-06-01T09:20:12.918Z,40.76
2019-06-01T09:21:12.899Z,40.56
2019-06-01T09:22:12.887Z,41.83
2019-06-01T09:23:12.875Z,41.14
2019-06-01T09:24:12.885Z,41.11
2019-06-01T09:25:12.866Z,40.35
2019-06-01T09:26:12.847Z,41.33
2019-06-01T09:27:12.838Z,40.55
2019-06-01T09:28:12.826Z,41.02
2019-06-01T09:29:12.813Z,40.13
2019-06-01T09:30:12.816Z,39.17
2019-06-01T09:31:12.793Z,40.84
2019-06-01T09:32:12.790Z,39.78
2019-06-01T09:33:12.819Z,39.78
2019-06-01T09:34:12.766Z,40.56
2019-06-01T09:35:12.758Z,40.56
2019-06-01T09:36:12.746Z,39.95
2019-06-01T09:37:12.732Z,40.23
2019-06-01T09:38:12.787Z,40.51
2019-06-01T09:39:12.708Z,39.58
2019-06-01T09:40:12.710Z,38.90
2019-06-01T09:41:12.728Z,38.76
2019-06-01T09:42:12.680Z,38.66
2019-06-01T09:43:12.677Z,37.66
2019-06-01T09:44:12.665Z,37.56
2019-06-01T09:45:12.663Z,36.49
2019-06-01T09:46:12.641Z,37.46
2019-06-01T09:47:12.662Z,36.51
2019-06-01T09:48:12.623Z,37.92
2019-06-01T09:49:12.613Z,38.01
2019-06-01T09:50:12.647Z,38.72
2019-06-01T09:51:12.587Z,38.70
2019-06-01T09:52:12.990Z,38.11
2019-06-01T09:53:12.569Z,39.17
2019-06-01T09:54:12.568Z,37.78
2019-06-01T09:55:12.550Z,37.86
2019-06-01T09:56:12.565Z,37.74
2019-06-01T09:57:12.543Z,36.94
2019-06-01T09:58:12.519Z,36.55
2019-06-01T09:59:12.519Z,36.24
2019-06-01T10:00:12.503Z,36.12
2019-06-01T10:01:12.505Z,36.90
2019-06-01T10:02:12.492Z,36.88
2019-06-01T10:03:12.473Z,34.91
2019-06-01T10:04:12.463Z,35.50
2019-06-01T10:05:12.459Z,34.91
2019-06-01T10:06:14.174Z,35.50
2019-06-01T10:07:12.540Z,36.65
2019-06-01T10:08:12.421Z,34.81
2019-06-01T10:09:12.443Z,36.26
2019-06-01T10:10:12.403Z,34.29
2019-06-01T10:11:12.402Z,34.70
2019-06-01T10:12:12.426Z,33.07
2019-06-01T10:13:12.451Z,34.93
2019-06-01T10:14:12.363Z,33.79
2019-06-01T10:15:12.350Z,34.41
2019-06-01T10:16:12.354Z,35.13
2019-06-01T10:17:12.342Z,35.13
2019-06-01T10:18:12.331Z,35.99
2019-06-01T10:19:12.319Z,36.29
2019-06-01T10:20:12.315Z,35.99
2019-06-01T10:21:12.305Z,36.25
2019-06-01T10:22:12.291Z,36.06
2019-06-01T10:23:12.358Z,35.45
2019-06-01T10:24:12.268Z,34.65
2019-06-01T10:25:12.262Z,34.55
2019-06-01T10:26:12.257Z,35.40
2019-06-01T10:27:12.266Z,32.76
2019-06-01T10:28:12.226Z,32.97
2019-06-01T10:29:12.224Z,33.67
2019-06-01T10:30:12.254Z,34.47
2019-06-01T10:31:12.213Z,34.78
2019-06-01T10:32:12.273Z,35.00
2019-06-01T10:33:12.180Z,34.90
2019-06-01T10:34:12.167Z,35.37
2019-06-01T10:35:12.246Z,35.19
2019-06-01T10:36:20.448Z,34.90
2019-06-01T10:37:13.139Z,36.09
2019-06-01T10:38:12.131Z,35.99
2019-06-01T10:39:12.126Z,35.80
2019-06-01T10:40:12.110Z,36.47
2019-06-01T10:41:12.198Z,37.33
2019-06-01T10:42:12.091Z,36.04
2019-06-01T10:43:12.085Z,35.34
2019-06-01T10:44:12.071Z,35.44
2019-06-01T10:45:12.063Z,35.14
2019-06-01T10:46:12.064Z,34.83
2019-06-01T10:47:12.133Z,35.50
2019-06-01T10:48:12.046Z,34.72
2019-06-01T10:49:12.028Z,35.28
2019-06-01T10:50:12.015Z,34.19
2019-06-01T10:51:12.019Z,33.40
2019-06-01T10:52:12.004Z,33.40
2019-06-01T10:53:12.090Z,33.40
2019-06-01T10:54:11.981Z,33.30
2019-06-01T10:55:11.967Z,32.89
2019-06-01T10:56:11.960Z,32.79
2019-06-01T10:57:12.019Z,33.38
2019-06-01T10:58:11.938Z,32.60
2019-06-01T10:59:12.074Z,32.81
2019-06-01T11:00:11.917Z,33.41
2019-06-01T11:01:11.911Z,33.51
2019-06-01T11:02:11.918Z,33.02
2019-06-01T11:03:12.161Z,34.08
2019-06-01T11:04:12.140Z,33.20
2019-06-01T11:05:12.019Z,33.77
2019-06-01T11:06:12.074Z,33.48
2019-06-01T11:07:12.135Z,33.48
2019-06-01T11:08:11.989Z,33.46
2019-06-01T11:09:11.996Z,32.50
2019-06-01T11:10:12.125Z,33.30
2019-06-01T11:11:12.004Z,32.73
2019-06-01T11:12:12.061Z,33.45
2019-06-01T11:13:11.894Z,33.15
2019-06-01T11:14:11.962Z,33.95
2019-06-01T11:15:11.802Z,33.26
2019-06-01T11:16:11.798Z,34.93
2019-06-01T11:17:11.777Z,34.26
2019-06-01T11:18:11.773Z,34.75
2019-06-01T11:19:11.754Z,35.32
2019-06-01T11:20:11.745Z,35.22
2019-06-01T11:21:11.725Z,34.81
2019-06-01T11:22:11.759Z,36.26
2019-06-01T11:23:11.711Z,34.88
2019-06-01T11:24:11.957Z,34.96
2019-06-01T11:25:11.712Z,34.57
2019-06-01T11:26:11.721Z,33.51
2019-06-01T11:27:11.730Z,33.22
2019-06-01T11:28:11.707Z,34.58
2019-06-01T11:29:11.665Z,34.39
2019-06-01T11:30:11.655Z,34.96
2019-06-01T11:31:11.645Z,34.86
2019-06-01T11:32:11.706Z,32.81
2019-06-01T11:33:11.659Z,33.22
2019-06-01T11:34:11.611Z,33.82
2019-06-01T11:35:11.608Z,33.23
2019-06-01T11:36:11.626Z,33.23
2019-06-01T11:37:15.202Z,33.62
2019-06-01T11:38:11.560Z,33.25
2019-06-01T11:39:11.547Z,33.54
2019-06-01T11:40:11.539Z,33.74
2019-06-01T11:41:11.526Z,34.62
2019-06-01T11:42:11.529Z,34.72
2019-06-01T11:43:11.508Z,35.40
2019-06-01T11:44:11.497Z,34.13
2019-06-01T11:45:11.486Z,35.11
2019-06-01T11:46:11.483Z,35.58
2019-06-01T11:47:11.467Z,33.33
2019-06-01T11:48:11.472Z,34.29
2019-06-01T11:49:11.446Z,33.14
2019-06-01T11:50:11.439Z,33.54
2019-06-01T11:51:11.426Z,34.94
2019-06-01T11:52:11.422Z,35.16
2019-06-01T11:53:11.417Z,36.04
2019-06-01T11:54:11.397Z,35.16
2019-06-01T11:55:11.392Z,35.06
2019-06-01T11:56:11.417Z,34.98
2019-06-01T11:57:11.366Z,35.17
2019-06-01T11:58:11.815Z,36.16
2019-06-01T11:59:11.343Z,36.43
2019-06-01T12:00:11.333Z,36.32
2019-06-01T12:01:11.326Z,35.63
2019-06-01T12:02:11.326Z,36.30
2019-06-01T12:03:11.321Z,36.67
2019-06-01T12:04:11.299Z,35.28
2019-06-01T12:05:11.284Z,35.87
2019-06-01T12:06:11.276Z,35.66
2019-06-01T12:07:17.464Z,35.27
2019-06-01T12:08:12.264Z,34.88
2019-06-01T12:09:11.242Z,34.39
2019-06-01T12:10:11.230Z,34.77
2019-06-01T12:11:11.224Z,35.36
2019-06-01T12:12:11.208Z,35.17
2019-06-01T12:13:11.206Z,33.50
2019-06-01T12:14:11.190Z,33.28
2019-06-01T12:15:11.177Z,33.38
2019-06-01T12:16:11.167Z,33.77
2019-06-01T12:17:11.167Z,32.32
2019-06-01T12:18:11.155Z,33.12
2019-06-01T12:19:11.138Z,33.62
2019-06-01T12:20:11.130Z,34.81
2019-06-01T12:21:11.116Z,34.70
2019-06-01T12:22:11.109Z,34.78
2019-06-01T12:23:11.103Z,33.51
2019-06-01T12:24:11.088Z,33.98
2019-06-01T12:25:11.075Z,34.45
2019-06-01T12:26:11.062Z,34.36
2019-06-01T12:27:11.061Z,33.58
2019-06-01T12:28:11.152Z,33.38
2019-06-01T12:29:11.031Z,32.19
2019-06-01T12:30:11.022Z,32.58
2019-06-01T12:31:11.011Z,32.39
2019-06-01T12:32:11.009Z,31.79
2019-06-01T12:33:10.995Z,31.19
2019-06-01T12:34:10.988Z,31.79
2019-06-01T12:35:10.970Z,31.79
2019-06-01T12:36:10.964Z,31.79
2019-06-01T12:37:10.950Z,31.22
2019-06-01T12:38:10.938Z,31.43
2019-06-01T12:39:10.939Z,32.60
2019-06-01T12:40:10.918Z,33.11
2019-06-01T12:41:10.906Z,33.61
2019-06-01T12:42:10.896Z,33.41
2019-06-01T12:43:10.882Z,33.43
2019-06-01T12:44:10.882Z,33.41
2019-06-01T12:45:10.880Z,32.45
2019-06-01T12:46:10.861Z,33.14
2019-06-01T12:47:10.840Z,33.94
2019-06-01T12:48:10.840Z,34.70
2019-06-01T12:49:10.872Z,35.19
2019-06-01T12:50:10.849Z,32.84
2019-06-01T12:51:10.798Z,32.45
2019-06-01T12:52:10.793Z,33.33
2019-06-01T12:53:10.779Z,33.90
2019-06-01T12:54:10.780Z,32.24
2019-06-01T12:55:10.755Z,32.13
2019-06-01T12:56:10.747Z,33.59
2019-06-01T12:57:10.735Z,33.59
2019-06-01T12:58:10.727Z,33.09
2019-06-01T12:59:10.724Z,33.18
2019-06-01T13:00:10.716Z,33.67
2019-06-01T13:01:10.691Z,33.89
2019-06-01T13:02:10.684Z,33.59
2019-06-01T13:03:10.673Z,34.39
2019-06-01T13:04:10.667Z,32.82
2019-06-01T13:05:10.657Z,34.31
2019-06-01T13:06:10.674Z,35.01
2019-06-01T13:07:10.630Z,34.52
2019-06-01T13:08:10.619Z,34.13
2019-06-01T13:09:10.618Z,32.65
2019-06-01T13:10:10.615Z,33.04
2019-06-01T13:11:10.588Z,32.07
2019-06-01T13:12:10.575Z,33.56
2019-06-01T13:13:10.563Z,35.03
2019-06-01T13:14:10.552Z,35.13
2019-06-01T13:15:10.558Z,34.74
2019-06-01T13:16:10.532Z,35.14
2019-06-01T13:17:10.524Z,35.75
2019-06-01T13:18:10.512Z,34.96
2019-06-01T13:19:10.502Z,33.69
2019-06-01T13:20:10.509Z,33.48
2019-06-01T13:21:10.480Z,32.66
2019-06-01T13:22:10.469Z,33.33
2019-06-01T13:23:10.456Z,32.75
2019-06-01T13:24:10.447Z,33.43
2019-06-01T13:25:10.446Z,34.21
2019-06-01T13:26:10.423Z,32.73
2019-06-01T13:27:10.431Z,32.91
2019-06-01T13:28:10.407Z,32.73
2019-06-01T13:29:10.398Z,32.55
2019-06-01T13:30:10.410Z,32.37
2019-06-01T13:31:10.374Z,32.78
2019-06-01T13:32:10.361Z,32.50
2019-06-01T13:33:10.352Z,32.81
2019-06-01T13:34:10.346Z,33.61
2019-06-01T13:35:10.337Z,33.62
2019-06-01T13:36:10.319Z,34.90
2019-06-01T13:37:10.309Z,35.31
2019-06-01T13:38:12.074Z,35.52
2019-06-01T13:39:10.285Z,36.80
2019-06-01T13:40:10.284Z,37.30
2019-06-01T13:41:10.265Z,37.92
2019-06-01T13:42:10.254Z,36.93
2019-06-01T13:43:10.246Z,36.13
2019-06-01T13:44:10.235Z,35.24
2019-06-01T13:45:10.239Z,36.82
2019-06-01T13:46:10.212Z,37.90
2019-06-01T13:47:10.203Z,37.80
2019-06-01T13:48:10.197Z,37.72
2019-06-01T13:49:10.182Z,37.82
2019-06-01T13:50:10.178Z,38.23
2019-06-01T13:51:10.158Z,39.11
2019-06-01T13:52:10.147Z,37.84
2019-06-01T13:53:10.137Z,38.80
2019-06-01T13:54:10.129Z,38.50
2019-06-01T13:55:10.227Z,38.21
2019-06-01T13:56:10.106Z,37.90
2019-06-01T13:57:10.096Z,37.80
2019-06-01T13:58:10.085Z,37.90
2019-06-01T13:59:10.071Z,38.29
2019-06-01T14:00:10.064Z,38.88
2019-06-01T14:01:10.059Z,37.99
2019-06-01T14:02:10.046Z,37.98
2019-06-01T14:03:10.029Z,37.80
2019-06-01T14:04:10.020Z,37.98
2019-06-01T14:05:10.013Z,38.17
2019-06-01T14:06:10.011Z,37.29
2019-06-01T14:07:09.993Z,37.68
2019-06-01T14:08:09.976Z,37.48
2019-06-01T14:09:09.969Z,38.17
2019-06-01T14:10:09.966Z,37.09
2019-06-01T14:11:09.959Z,37.58
2019-06-01T14:12:09.938Z,37.56
2019-06-01T14:13:09.941Z,37.68
2019-06-01T14:14:09.914Z,38.76
2019-06-01T14:15:09.902Z,37.38
2019-06-01T14:16:09.907Z,37.68
2019-06-01T14:17:09.881Z,37.58
2019-06-01T14:18:09.871Z,37.48
2019-06-01T14:19:09.859Z,37.88
2019-06-01T14:20:09.847Z,37.99
2019-06-01T14:21:09.853Z,37.90
2019-06-01T14:22:09.827Z,37.72
2019-06-01T14:23:09.817Z,38.92
2019-06-01T14:24:09.806Z,38.92
2019-06-01T14:25:14.310Z,39.01
2019-06-01T14:26:10.793Z,39.60
2019-06-01T14:27:09.773Z,40.19
2019-06-01T14:28:09.835Z,40.58
2019-06-01T14:29:09.757Z,40.09
2019-06-01T14:30:09.753Z,40.48
2019-06-01T14:31:09.744Z,39.60
2019-06-01T14:32:09.723Z,40.19
2019-06-01T14:33:09.709Z,40.78
2019-06-01T14:34:09.697Z,40.78
2019-06-01T14:35:09.691Z,40.09
2019-06-01T14:36:09.688Z,39.70
2019-06-01T14:37:09.665Z,40.29
2019-06-01T14:38:09.707Z,40.00
2019-06-01T14:39:09.645Z,40.29
2019-06-01T14:40:09.635Z,40.00
2019-06-01T14:41:09.632Z,40.17
2019-06-01T14:42:09.612Z,40.39
2019-06-01T14:43:09.601Z,40.39
2019-06-01T14:44:09.595Z,40.39
2019-06-01T14:45:09.586Z,40.86
2019-06-01T14:46:09.582Z,40.76
2019-06-01T14:47:09.566Z,39.98
2019-06-01T14:48:09.628Z,40.00
2019-06-01T14:49:09.543Z,40.09
2019-06-01T14:50:09.531Z,40.29
2019-06-01T14:51:09.517Z,40.47
2019-06-01T14:52:09.515Z,39.90
2019-06-01T14:53:09.494Z,41.17
2019-06-01T14:54:09.484Z,40.51
2019-06-01T14:55:09.507Z,40.21
2019-06-01T14:56:09.470Z,41.11
2019-06-01T14:57:09.463Z,40.43
2019-06-01T14:58:09.443Z,40.72
2019-06-01T14:59:09.430Z,40.72
2019-06-01T15:00:09.432Z,40.62
2019-06-01T15:01:09.414Z,40.70
2019-06-01T15:02:09.419Z,40.41
2019-06-01T15:03:09.391Z,40.70
2019-06-01T15:04:09.384Z,40.31
2019-06-01T15:05:09.371Z,40.21
2019-06-01T15:06:09.358Z,39.52
2019-06-01T15:07:09.356Z,40.90
2019-06-01T15:08:09.338Z,40.80
2019-06-01T15:09:18.366Z,40.01
2019-06-01T15:10:10.354Z,40.61
2019-06-01T15:11:09.312Z,40.72
2019-06-01T15:12:09.310Z,40.62
2019-06-01T15:13:09.283Z,40.33
2019-06-01T15:14:09.277Z,40.62
2019-06-01T15:15:09.262Z,40.43
2019-06-01T15:16:09.250Z,40.33
2019-06-01T15:17:09.248Z,40.13
2019-06-01T15:18:09.235Z,41.02
2019-06-01T15:19:09.218Z,40.84
2019-06-01T15:20:09.211Z,40.35
2019-06-01T15:21:09.196Z,41.24
2019-06-01T15:22:09.201Z,41.14
2019-06-01T15:23:09.175Z,41.04
2019-06-01T15:24:09.165Z,41.24
2019-06-01T15:25:09.156Z,40.94
2019-06-01T15:26:09.145Z,42.32
2019-06-01T15:27:09.164Z,41.80
2019-06-01T15:28:09.126Z,40.74
2019-06-01T15:29:09.114Z,40.84
2019-06-01T15:30:09.099Z,40.72
2019-06-01T15:31:09.089Z,41.02
2019-06-01T15:32:09.191Z,40.74
2019-06-01T15:33:09.071Z,40.64
2019-06-01T15:34:09.056Z,41.24
2019-06-01T15:35:09.049Z,41.24
2019-06-01T15:36:09.039Z,41.43
2019-06-01T15:37:09.025Z,41.14
2019-06-01T15:38:09.025Z,41.33
2019-06-01T15:39:23.499Z,41.24
2019-06-01T15:40:09.992Z,41.25
2019-06-01T15:41:08.988Z,41.14
2019-06-01T15:42:08.976Z,41.16
2019-06-01T15:43:08.976Z,41.85
2019-06-01T15:44:08.950Z,40.96
2019-06-01T15:45:08.940Z,40.96
2019-06-01T15:46:09.565Z,41.45
2019-06-01T15:47:08.918Z,42.26
2019-06-01T15:48:08.916Z,41.86
2019-06-01T15:49:08.895Z,42.46
2019-06-01T15:50:08.888Z,41.86
2019-06-01T15:51:08.875Z,42.26
2019-06-01T15:52:08.864Z,42.16
2019-06-01T15:53:08.861Z,42.36
2019-06-01T15:54:08.842Z,42.07
2019-06-01T15:55:08.833Z,42.26
2019-06-01T15:56:08.821Z,42.26
2019-06-01T15:57:08.810Z,41.86
2019-06-01T15:58:08.810Z,42.85
2019-06-01T15:59:08.795Z,42.46
2019-06-01T16:00:08.777Z,42.85
2019-06-01T16:01:08.769Z,42.36
2019-06-01T16:02:08.757Z,42.36
2019-06-01T16:03:08.765Z,42.16
2019-06-01T16:04:08.735Z,42.18
2019-06-01T16:05:08.725Z,42.68
2019-06-01T16:06:08.713Z,42.28
2019-06-01T16:07:08.703Z,42.38
2019-06-01T16:08:08.703Z,42.10
2019-06-01T16:09:08.680Z,42.69
2019-06-01T16:10:08.950Z,42.72
2019-06-01T16:11:08.658Z,42.42
2019-06-01T16:12:08.648Z,42.82
2019-06-01T16:13:08.645Z,43.70
2019-06-01T16:14:08.626Z,43.31
2019-06-01T16:15:08.639Z,43.21
2019-06-01T16:16:08.618Z,43.01
2019-06-01T16:17:08.596Z,42.91
2019-06-01T16:18:08.594Z,43.41
2019-06-01T16:19:08.572Z,43.41
2019-06-01T16:20:08.563Z,43.80
2019-06-01T16:21:08.559Z,43.01
2019-06-01T16:22:08.544Z,43.43
2019-06-01T16:23:08.528Z,43.51
2019-06-01T16:24:08.527Z,43.41
2019-06-01T16:25:08.521Z,43.11
2019-06-01T16:26:15.824Z,43.51
2019-06-01T16:27:09.484Z,43.70
2019-06-01T16:28:08.474Z,43.60
2019-06-01T16:29:08.472Z,42.52
2019-06-01T16:30:08.454Z,42.82
2019-06-01T16:31:08.446Z,42.32
2019-06-01T16:32:08.433Z,42.52
2019-06-01T16:33:08.423Z,43.21
2019-06-01T16:34:08.421Z,43.51
2019-06-01T16:35:08.406Z,43.21
2019-06-01T16:36:08.389Z,43.31
2019-06-01T16:37:08.378Z,43.70
2019-06-01T16:38:08.369Z,43.60
2019-06-01T16:39:08.369Z,43.01
2019-06-01T16:40:09.985Z,43.21
2019-06-01T16:41:08.339Z,43.13
2019-06-01T16:42:08.322Z,42.83
2019-06-01T16:43:08.316Z,43.52
2019-06-01T16:44:08.312Z,43.33
2019-06-01T16:45:08.290Z,43.33
2019-06-01T16:46:08.280Z,43.62
2019-06-01T16:47:08.271Z,43.62
2019-06-01T16:48:08.259Z,43.92
2019-06-01T16:49:08.256Z,43.43
2019-06-01T16:50:08.237Z,43.33
2019-06-01T16:51:08.225Z,43.52
2019-06-01T16:52:08.216Z,43.73
2019-06-01T16:53:08.206Z,44.04
2019-06-01T16:54:08.202Z,43.33
2019-06-01T16:55:08.199Z,43.73
2019-06-01T16:56:08.173Z,43.55
2019-06-01T16:57:09.297Z,43.45
2019-06-01T16:58:08.214Z,43.65
2019-06-01T16:59:08.147Z,43.84
2019-06-01T17:00:08.130Z,43.35
2019-06-01T17:01:08.118Z,43.15
2019-06-01T17:02:08.109Z,43.35
2019-06-01T17:03:11.235Z,43.65
2019-06-01T17:04:08.095Z,44.24
2019-06-01T17:05:08.079Z,44.06
2019-06-01T17:06:08.063Z,44.36
2019-06-01T17:07:08.872Z,43.37
2019-06-01T17:08:08.082Z,43.57
2019-06-01T17:09:08.042Z,44.26
2019-06-01T17:10:21.646Z,44.36
2019-06-01T17:11:09.015Z,44.16
2019-06-01T17:12:08.007Z,43.77
2019-06-01T17:13:08.947Z,44.26
2019-06-01T17:14:07.986Z,43.17
2019-06-01T17:15:07.967Z,43.47
2019-06-01T17:16:07.956Z,43.66
2019-06-01T17:17:07.947Z,43.47
2019-06-01T17:18:10.320Z,44.36
2019-06-01T17:19:07.932Z,44.26
2019-06-01T17:20:07.916Z,44.65
2019-06-01T17:21:07.902Z,44.97
2019-06-01T17:22:07.890Z,45.27
2019-06-01T17:23:24.254Z,45.47
2019-06-01T17:24:08.878Z,44.78
2019-06-01T17:25:08.017Z,45.49
2019-06-01T17:26:08.895Z,45.47
2019-06-01T17:27:08.178Z,45.19
2019-06-01T17:28:09.071Z,45.27
2019-06-01T17:29:08.308Z,45.57
2019-06-01T17:30:10.450Z,45.29
2019-06-01T17:31:08.445Z,45.27
2019-06-01T17:32:22.739Z,46.26
2019-06-01T17:33:08.771Z,45.59
2019-06-01T17:34:08.699Z,45.59
2019-06-01T17:35:09.087Z,45.37
2019-06-01T17:36:08.844Z,45.09
2019-06-01T17:37:08.886Z,44.80
2019-06-01T17:38:09.071Z,45.59
2019-06-01T17:39:08.065Z,45.49
2019-06-01T17:40:08.435Z,45.49
2019-06-01T17:41:08.450Z,45.19
2019-06-01T17:42:08.652Z,45.59
2019-06-01T17:43:08.793Z,45.49
2019-06-01T17:44:08.915Z,45.59
2019-06-01T17:45:08.287Z,45.79
2019-06-01T17:46:07.630Z,45.59
2019-06-01T17:47:08.099Z,46.08
2019-06-01T17:48:21.861Z,45.68
2019-06-01T17:49:08.597Z,45.68
2019-06-01T17:50:07.665Z,45.59
2019-06-01T17:51:08.612Z,46.08
2019-06-01T17:52:07.875Z,46.08
2019-06-01T17:53:08.779Z,45.98
2019-06-01T17:54:08.430Z,45.98
2019-06-01T17:55:07.544Z,45.79
2019-06-01T17:56:08.191Z,46.28
2019-06-01T17:57:07.512Z,45.71
2019-06-01T17:58:07.822Z,45.90
2019-06-01T17:59:07.591Z,46.30
2019-06-01T18:00:07.713Z,46.11
2019-06-01T18:01:08.127Z,46.70
2019-06-01T18:02:07.845Z,45.90
2019-06-01T18:03:07.959Z,46.11
2019-06-01T18:04:07.951Z,46.30
2019-06-01T18:05:08.272Z,46.20
2019-06-01T18:06:07.878Z,45.81
2019-06-01T18:07:07.977Z,46.01
2019-06-01T18:08:08.126Z,46.03
2019-06-01T18:09:08.123Z,46.11
2019-06-01T18:10:08.258Z,45.90
2019-06-01T18:11:08.103Z,46.11
2019-06-01T18:12:08.174Z,46.40
2019-06-01T18:13:08.669Z,45.81
2019-06-01T18:14:08.215Z,45.81
2019-06-01T18:15:08.274Z,46.01
2019-06-01T18:16:08.291Z,46.30
2019-06-01T18:17:08.243Z,47.31
2019-06-01T18:18:08.727Z,46.62
2019-06-01T18:19:08.400Z,46.42
2019-06-01T18:20:07.275Z,46.82
2019-06-01T18:21:08.411Z,46.12
2019-06-01T18:22:07.247Z,46.42
2019-06-01T18:23:08.336Z,46.42
2019-06-01T18:24:08.309Z,47.12
2019-06-01T18:25:08.435Z,46.64
2019-06-01T18:26:07.199Z,46.33
2019-06-01T18:27:08.471Z,46.45
2019-06-01T18:28:07.270Z,47.24
2019-06-01T18:29:07.168Z,47.34
2019-06-01T18:30:07.171Z,47.44
2019-06-01T18:31:07.146Z,47.34
2019-06-01T18:32:07.582Z,47.24
2019-06-01T18:33:07.238Z,47.63
2019-06-01T18:34:07.812Z,47.34
2019-06-01T18:35:07.224Z,47.53
2019-06-01T18:36:07.581Z,47.53
2019-06-01T18:37:07.470Z,47.34
2019-06-01T18:38:07.783Z,47.14
2019-06-01T18:39:07.611Z,47.44
2019-06-01T18:40:07.757Z,47.44
2019-06-01T18:41:14.609Z,47.36
2019-06-01T18:42:08.265Z,47.36
2019-06-01T18:43:07.895Z,47.75
2019-06-01T18:44:07.713Z,47.46
2019-06-01T18:45:07.701Z,48.05
2019-06-01T18:46:08.089Z,48.05
2019-06-01T18:47:07.809Z,48.18
2019-06-01T18:48:08.166Z,47.68
2019-06-01T18:49:07.970Z,48.18
2019-06-01T18:50:07.909Z,48.18